Map

Track Data

SID SEASON NUMBER BASIN SUBBASIN NAME ISO_TIME NATURE LAT LON WMO_WIND WMO_PRES WMO_AGENCY TRACK_TYPE DIST2LAND LANDFALL IFLAG USA_AGENCY USA_ATCF_ID USA_LAT USA_LON USA_RECORD USA_STATUS USA_WIND USA_PRES USA_SSHS USA_R34_NE USA_R34_SE USA_R34_SW USA_R34_NW USA_R50_NE USA_R50_SE USA_R50_SW USA_R50_NW USA_R64_NE USA_R64_SE USA_R64_SW USA_R64_NW USA_POCI USA_ROCI USA_RMW USA_EYE TOKYO_LAT TOKYO_LON TOKYO_GRADE TOKYO_WIND TOKYO_PRES TOKYO_R50_DIR TOKYO_R50_LONG TOKYO_R50_SHORT TOKYO_R30_DIR TOKYO_R30_LONG TOKYO_R30_SHORT TOKYO_LAND CMA_LAT CMA_LON CMA_CAT CMA_WIND CMA_PRES HKO_LAT HKO_LON HKO_CAT HKO_WIND HKO_PRES NEWDELHI_LAT NEWDELHI_LON NEWDELHI_GRADE NEWDELHI_WIND NEWDELHI_PRES NEWDELHI_CI NEWDELHI_DP NEWDELHI_POCI REUNION_LAT REUNION_LON REUNION_TYPE REUNION_WIND REUNION_PRES REUNION_TNUM REUNION_CI REUNION_RMW REUNION_R34_NE REUNION_R34_SE REUNION_R34_SW REUNION_R34_NW REUNION_R50_NE REUNION_R50_SE REUNION_R50_SW REUNION_R50_NW REUNION_R64_NE REUNION_R64_SE REUNION_R64_SW REUNION_R64_NW BOM_LAT BOM_LON BOM_TYPE BOM_WIND BOM_PRES BOM_TNUM BOM_CI BOM_RMW BOM_R34_NE BOM_R34_SE BOM_R34_SW BOM_R34_NW BOM_R50_NE BOM_R50_SE BOM_R50_SW BOM_R50_NW BOM_R64_NE BOM_R64_SE BOM_R64_SW BOM_R64_NW BOM_ROCI BOM_POCI BOM_EYE BOM_POS_METHOD BOM_PRES_METHOD NADI_LAT NADI_LON NADI_CAT NADI_WIND NADI_PRES WELLINGTON_LAT WELLINGTON_LON WELLINGTON_WIND WELLINGTON_PRES DS824_LAT DS824_LON DS824_STAGE DS824_WIND DS824_PRES TD9636_LAT TD9636_LON TD9636_STAGE TD9636_WIND TD9636_PRES TD9635_LAT TD9635_LON TD9635_WIND TD9635_PRES TD9635_ROCI NEUMANN_LAT NEUMANN_LON NEUMANN_CLASS NEUMANN_WIND NEUMANN_PRES MLC_LAT MLC_LON MLC_CLASS MLC_WIND MLC_PRES USA_GUST BOM_GUST BOM_GUST_PER REUNION_GUST REUNION_GUST_PER USA_SEAHGT USA_SEARAD_NE USA_SEARAD_SE USA_SEARAD_SW USA_SEARAD_NW STORM_SPEED STORM_DIR
1990279N36316 1990 98 NA NA LILI 1990-10-06 06:00:00 SS 36.0000 -44.0000 45 1000 hurdat_atl main 1404 1404 O_____________ hurdat_atl AL141990 36.0000 -44.0000 SS 45 1000 -2 3 195
1990279N36316 1990 98 NA NA LILI 1990-10-06 09:00:00 SS 35.8625 -44.0525 main 1409 1409 P_____________ AL141990 35.8625 -44.0525 SS 47 999 -2 3 194
1990279N36316 1990 98 NA NA LILI 1990-10-06 12:00:00 SS 35.7000 -44.1000 50 999 hurdat_atl main 1428 1428 O_____________ hurdat_atl AL141990 35.7000 -44.1000 SS 50 999 -2 4 191
1990279N36316 1990 98 NA NA LILI 1990-10-06 15:00:00 SS 35.5000 -44.1425 main 1448 1443 P_____________ AL141990 35.5000 -44.1425 SS 50 998 -2 4 191
1990279N36316 1990 98 NA NA LILI 1990-10-06 18:00:00 SS 35.3000 -44.2000 50 998 hurdat_atl main 1463 1463 O_____________ hurdat_atl AL141990 35.3000 -44.2000 SS 50 998 -2 4 200
1990279N36316 1990 98 NA NA LILI 1990-10-06 21:00:00 SS 35.1425 -44.3000 main 1478 1474 P_____________ AL141990 35.1425 -44.3000 SS 50 998 -2 3 208
1990279N36316 1990 98 NA NA LILI 1990-10-07 00:00:00 SS 35.0000 -44.4000 50 998 hurdat_atl main 1484 1484 O_____________ hurdat_atl AL141990 35.0000 -44.4000 SS 50 998 -2 3 204
1990279N36316 1990 98 NA NA LILI 1990-10-07 03:00:00 SS 34.8500 -44.4574 main 1500 1500 P_____________ AL141990 34.8500 -44.4574 SS 47 998 -2 3 194
1990279N36316 1990 98 NA NA LILI 1990-10-07 06:00:00 SS 34.7000 -44.5000 45 999 hurdat_atl main 1510 1510 O_____________ hurdat_atl AL141990 34.7000 -44.5000 SS 45 999 -2 3 192
1990279N36316 1990 98 NA NA LILI 1990-10-07 09:00:00 SS 34.5500 -44.5424 main 1530 1526 P_____________ AL141990 34.5500 -44.5424 SS 45 999 -2 3 194
1990279N36316 1990 98 NA NA LILI 1990-10-07 12:00:00 SS 34.4000 -44.6000 45 1000 hurdat_atl main 1536 1536 O_____________ hurdat_atl AL141990 34.4000 -44.6000 SS 45 1000 -2 3 202
1990279N36316 1990 98 NA NA LILI 1990-10-07 15:00:00 SS 34.2500 -44.6925 main 1542 1542 P_____________ AL141990 34.2500 -44.6925 SS 45 1000 -2 3 208
1990279N36316 1990 98 NA NA LILI 1990-10-07 18:00:00 SS 34.1000 -44.8000 45 1000 hurdat_atl main 1559 1559 O_____________ hurdat_atl AL141990 34.1000 -44.8000 SS 45 1000 -2 3 210
1990279N36316 1990 98 NA NA LILI 1990-10-07 21:00:00 SS 33.9500 -44.8924 main 1575 1572 P_____________ AL141990 33.9500 -44.8924 SS 45 1000 -2 3 209
1990279N36316 1990 98 NA NA LILI 1990-10-08 00:00:00 SS 33.8000 -45.0000 45 1000 hurdat_atl main 1582 1582 O_____________ hurdat_atl AL141990 33.8000 -45.0000 SS 45 1000 -2 3 214
1990279N36316 1990 98 NA NA LILI 1990-10-08 03:00:00 SS 33.6798 -45.1120 main 1589 1589 P_____________ AL141990 33.6798 -45.1120 SS 47 999 -2 4 220
1990279N36316 1990 98 NA NA LILI 1990-10-08 06:00:00 SS 33.5000 -45.3000 50 998 hurdat_atl main 1602 1602 O_____________ hurdat_atl AL141990 33.5000 -45.3000 SS 50 998 -2 7 219
1990279N36316 1990 98 NA NA LILI 1990-10-08 09:00:00 SS 33.1725 -45.6128 main 1623 1623 P_____________ AL141990 33.1725 -45.6128 SS 50 997 -2 9 220
1990279N36316 1990 98 NA NA LILI 1990-10-08 12:00:00 SS 32.8000 -46.0000 50 996 hurdat_atl main 1652 1652 O_____________ hurdat_atl AL141990 32.8000 -46.0000 SS 50 996 -2 9 224
1990279N36316 1990 98 NA NA LILI 1990-10-08 15:00:00 SS 32.4924 -46.3922 main 1671 1671 P_____________ AL141990 32.4924 -46.3922 SS 52 995 -2 9 228
1990279N36316 1990 98 NA NA LILI 1990-10-08 18:00:00 SS 32.2000 -46.8000 55 994 hurdat_atl main 1692 1692 O_____________ hurdat_atl AL141990 32.2000 -46.8000 SS 55 994 -2 9 228
1990279N36316 1990 98 NA NA LILI 1990-10-08 21:00:00 SS 31.8774 -47.2076 main 1714 1714 P_____________ AL141990 31.8774 -47.2076 SS 57 993 -2 9 229
1990279N36316 1990 98 NA NA LILI 1990-10-09 00:00:00 SS 31.6000 -47.6000 60 992 hurdat_atl main 1736 1734 O_____________ hurdat_atl AL141990 31.6000 -47.6000 SS 60 992 -2 8 235
1990279N36316 1990 98 NA NA LILI 1990-10-09 03:00:00 SS 31.4200 -47.9722 main 1749 1747 P_____________ AL141990 31.4200 -47.9722 SS 60 993 -2 7 243
1990279N36316 1990 98 NA NA LILI 1990-10-09 06:00:00 SS 31.3000 -48.3000 60 995 hurdat_atl main 1753 1751 O_____________ hurdat_atl AL141990 31.3000 -48.3000 SS 60 995 -2 6 245
1990279N36316 1990 98 NA NA LILI 1990-10-09 09:00:00 SS 31.1849 -48.5724 main 1758 1757 P_____________ AL141990 31.1849 -48.5724 SS 55 996 -2 5 245
1990279N36316 1990 98 NA NA LILI 1990-10-09 12:00:00 SS 31.1000 -48.8000 50 997 hurdat_atl main 1766 1764 O_____________ hurdat_atl AL141990 31.1000 -48.8000 SS 50 997 -2 4 248
1990279N36316 1990 98 NA NA LILI 1990-10-09 15:00:00 SS 31.0350 -49.0150 main 1773 1770 P_____________ AL141990 31.0350 -49.0150 SS 50 997 -2 4 254
1990279N36316 1990 98 NA NA LILI 1990-10-09 18:00:00 SS 31.0000 -49.2000 50 998 hurdat_atl main 1770 1768 O_____________ hurdat_atl AL141990 31.0000 -49.2000 SS 50 998 -2 3 263
1990279N36316 1990 98 NA NA LILI 1990-10-09 21:00:00 SS 30.9998 -49.3349 main 1768 1765 P_____________ AL141990 30.9998 -49.3349 SS 50 998 -2 3 270
1990279N36316 1990 98 NA NA LILI 1990-10-10 00:00:00 SS 31.0000 -49.5000 50 998 hurdat_atl main 1765 1762 O_____________ hurdat_atl AL141990 31.0000 -49.5000 SS 50 998 -2 3 260
1990279N36316 1990 98 NA NA LILI 1990-10-10 03:00:00 SS 30.9421 -49.7327 main 1773 1767 P_____________ AL141990 30.9421 -49.7327 SS 50 997 -2 5 259
1990279N36316 1990 98 NA NA LILI 1990-10-10 06:00:00 SS 30.9000 -50.1000 50 996 hurdat_atl main 1767 1761 O_____________ hurdat_atl AL141990 30.9000 -50.1000 SS 50 996 -2 7 268
1990279N36316 1990 98 NA NA LILI 1990-10-10 09:00:00 SS 30.9190 -50.5879 main 1761 1744 P_____________ AL141990 30.9190 -50.5879 SS 52 994 -2 10 276
1990279N36316 1990 98 NA NA LILI 1990-10-10 12:00:00 SS 31.0000 -51.3000 55 992 hurdat_atl main 1744 1716 O_____________ hurdat_atl AL141990 31.0000 -51.3000 SS 55 992 -2 14 280
1990279N36316 1990 98 NA NA LILI 1990-10-10 15:00:00 SS 31.1647 -52.2513 main 1716 1688 P_____________ AL141990 31.1647 -52.2513 SS 57 990 -2 18 279
1990279N36316 1990 98 NA NA LILI 1990-10-10 18:00:00 SS 31.3000 -53.4000 60 989 hurdat_atl main 1684 1649 O_____________ hurdat_atl AL141990 31.3000 -53.4000 SS 60 989 -2 20 273
1990279N36316 1990 98 NA NA LILI 1990-10-10 21:00:00 SS 31.2864 -54.5982 main 1646 1603 P_____________ AL141990 31.2864 -54.5982 SS 62 988 -2 21 267
1990279N36316 1990 98 NA NA LILI 1990-10-11 00:00:00 TS 31.2000 -55.9000 65 987 hurdat_atl main 1598 1553 O_____________ hurdat_atl AL141990 31.2000 -55.9000 HU 65 987 1 23 266
1990279N36316 1990 98 NA NA LILI 1990-10-11 03:00:00 TS 31.1147 -57.2923 main 1549 1511 P_____________ AL141990 31.1147 -57.2923 HU 65 987 1 24 265
1990279N36316 1990 98 NA NA LILI 1990-10-11 06:00:00 TS 31.0000 -58.7000 65 987 hurdat_atl main 1507 1481 O_____________ hurdat_atl AL141990 31.0000 -58.7000 HU 65 987 1 23 264
1990279N36316 1990 98 NA NA LILI 1990-10-11 09:00:00 TS 30.8628 -59.9995 main 1478 1442 P_____________ AL141990 30.8628 -59.9995 HU 65 987 1 23 262
1990279N36316 1990 98 NA NA LILI 1990-10-11 12:00:00 TS 30.7000 -61.3000 65 988 hurdat_atl main 1433 1334 O_____________ hurdat_atl AL141990 30.7000 -61.3000 HU 65 988 1 24 261
1990279N36316 1990 98 NA NA LILI 1990-10-11 15:00:00 TS 30.5076 -62.7225 main 1326 1231 P_____________ AL141990 30.5076 -62.7225 HU 65 989 1 24 261
1990279N36316 1990 98 NA NA LILI 1990-10-11 18:00:00 TS 30.3000 -64.1000 65 990 hurdat_atl main 1223 1149 O_____________ hurdat_atl AL141990 30.3000 -64.1000 HU 65 990 1 23 259
1990279N36316 1990 98 NA NA LILI 1990-10-11 21:00:00 TS 30.0758 -65.3025 main 1141 1080 P_____________ AL141990 30.0758 -65.3025 HU 65 992 1 20 259
1990279N36316 1990 98 NA NA LILI 1990-10-12 00:00:00 TS 29.9000 -66.4000 65 995 hurdat_atl main 1072 1008 O_____________ hurdat_atl AL141990 29.9000 -66.4000 HU 65 995 1 19 261
1990279N36316 1990 98 NA NA LILI 1990-10-12 03:00:00 TS 29.7893 -67.4876 main 1001 933 P_____________ AL141990 29.7893 -67.4876 HU 65 995 1 18 267
1990279N36316 1990 98 NA NA LILI 1990-10-12 06:00:00 TS 29.8000 -68.5000 65 995 hurdat_atl main 925 853 O_____________ hurdat_atl AL141990 29.8000 -68.5000 HU 65 995 1 17 275
1990279N36316 1990 98 NA NA LILI 1990-10-12 09:00:00 TS 29.9398 -69.4744 main 846 767 P_____________ AL141990 29.9398 -69.4744 HU 65 994 1 16 284
1990279N36316 1990 98 NA NA LILI 1990-10-12 12:00:00 TS 30.2000 -70.3000 65 994 hurdat_atl main 767 702 O_____________ hurdat_atl AL141990 30.2000 -70.3000 HU 65 994 1 14 294
1990279N36316 1990 98 NA NA LILI 1990-10-12 15:00:00 TS 30.4893 -70.9330 main 702 636 P_____________ AL141990 30.4893 -70.9330 HU 65 993 1 12 306
1990279N36316 1990 98 NA NA LILI 1990-10-12 18:00:00 TS 30.9000 -71.4000 65 993 hurdat_atl main 636 571 O_____________ hurdat_atl AL141990 30.9000 -71.4000 HU 65 993 1 12 323
1990279N36316 1990 98 NA NA LILI 1990-10-12 21:00:00 TS 31.4698 -71.8024 main 564 498 P_____________ AL141990 31.4698 -71.8024 HU 65 992 1 13 334
1990279N36316 1990 98 NA NA LILI 1990-10-13 00:00:00 TS 32.1000 -72.1000 65 992 hurdat_atl main 498 449 O_____________ hurdat_atl AL141990 32.1000 -72.1000 HU 65 992 1 13 338
1990279N36316 1990 98 NA NA LILI 1990-10-13 03:00:00 TS 32.6574 -72.3600 main 435 396 P_____________ AL141990 32.6574 -72.3600 HU 65 992 1 12 343
1990279N36316 1990 98 NA NA LILI 1990-10-13 06:00:00 TS 33.2000 -72.5000 65 992 hurdat_atl main 396 359 O_____________ hurdat_atl AL141990 33.2000 -72.5000 HU 65 992 1 11 353
1990279N36316 1990 98 NA NA LILI 1990-10-13 09:00:00 TS 33.7424 -72.5102 main 359 327 P_____________ AL141990 33.7424 -72.5102 HU 62 993 0 11 4
1990279N36316 1990 98 NA NA LILI 1990-10-13 12:00:00 TS 34.3000 -72.4000 60 995 hurdat_atl main 327 306 O_____________ hurdat_atl AL141990 34.3000 -72.4000 TS 60 995 0 12 11
1990279N36316 1990 98 NA NA LILI 1990-10-13 15:00:00 TS 34.8999 -72.2448 main 314 308 P_____________ AL141990 34.8999 -72.2448 TS 55 996 0 12 15
1990279N36316 1990 98 NA NA LILI 1990-10-13 18:00:00 TS 35.5000 -72.0000 50 997 hurdat_atl main 317 316 O_____________ hurdat_atl AL141990 35.5000 -72.0000 TS 50 997 0 12 20
1990279N36316 1990 98 NA NA LILI 1990-10-13 21:00:00 TS 36.0342 -71.7378 main 342 342 P_____________ AL141990 36.0342 -71.7378 TS 50 996 0 12 27
1990279N36316 1990 98 NA NA LILI 1990-10-14 00:00:00 TS 36.6000 -71.3000 50 996 hurdat_atl main 384 384 O_____________ hurdat_atl AL141990 36.6000 -71.3000 TS 50 996 0 15 37
1990279N36316 1990 98 NA NA LILI 1990-10-14 03:00:00 TS 37.2321 -70.6099 main 411 393 P_____________ AL141990 37.2321 -70.6099 TS 50 995 0 19 42
1990279N36316 1990 98 NA NA LILI 1990-10-14 06:00:00 TS 38.0000 -69.7000 50 995 hurdat_atl main 398 330 O_____________ hurdat_atl AL141990 38.0000 -69.7000 TS 50 995 0 23 42
1990279N36316 1990 98 NA NA LILI 1990-10-14 09:00:00 TS 38.9247 -68.6651 main 330 283 P_____________ AL141990 38.9247 -68.6651 TS 50 995 0 26 41
1990279N36316 1990 98 NA NA LILI 1990-10-14 12:00:00 TS 40.0000 -67.5000 50 995 hurdat_atl main 282 273 O_____________ hurdat_atl AL141990 40.0000 -67.5000 TS 50 995 0 28 38
1990279N36316 1990 98 NA NA LILI 1990-10-14 15:00:00 TS 41.1578 -66.3756 main 262 133 P_____________ AL141990 41.1578 -66.3756 TS 47 995 0 30 38
1990279N36316 1990 98 NA NA LILI 1990-10-14 18:00:00 TS 42.4000 -65.0000 45 995 hurdat_atl main 124 90 O_____________ hurdat_atl AL141990 42.4000 -65.0000 TS 45 995 0 35 43
1990279N36316 1990 98 NA NA LILI 1990-10-14 21:00:00 TS 43.7018 -63.1600 main 84 44 P_____________ AL141990 43.7018 -63.1600 TS 42 995 0 38 49
1990279N36316 1990 98 NA NA LILI 1990-10-15 00:00:00 ET 44.9000 -61.0000 40 995 hurdat_atl main 34 27 O_____________ hurdat_atl AL141990 44.9000 -61.0000 EX 40 995 -4 38 55
1990279N36316 1990 98 NA NA LILI 1990-10-15 03:00:00 ET 45.8639 -58.7989 main 83 58 P_____________ AL141990 45.8639 -58.7989 EX 40 994 -4 36 62
1990279N36316 1990 98 NA NA LILI 1990-10-15 06:00:00 ET 46.6000 -56.4000 40 994 hurdat_atl main 53 0 O_____________ hurdat_atl AL141990 46.6000 -56.4000 EX 40 994 -4 37 70
1990279N36316 1990 98 NA NA LILI 1990-10-15 09:00:00 ET 47.1247 -53.7718 main 0 0 P_____________ AL141990 47.1247 -53.7718 EX 40 994 -4 38 76
1990279N36316 1990 98 NA NA LILI 1990-10-15 12:00:00 ET 47.5000 -51.0000 40 994 hurdat_atl main 119 O_____________ hurdat_atl AL141990 47.5000 -51.0000 EX 40 994 -4 38 79

About IBTrACS Database

This database is a web-friendly format of International Best Track Archive for Climate Stewardship (IBTrACS), a global best track data archive curated by NOAA dating back to 1842.

Updated: 2021-11-26